sensor_id;sensor_type;location;lat;lon;timestamp;P1;durP1;ratioP1;P2;durP2;ratioP2
76417;SDS011;65250;47.602;19.002;2023-06-22T00:01:19;8.57;;;3.85;;
76417;SDS011;65250;47.602;19.002;2023-06-22T00:03:46;7.13;;;3.87;;
76417;SDS011;65250;47.602;19.002;2023-06-22T00:06:13;9.52;;;3.78;;
76417;SDS011;65250;47.602;19.002;2023-06-22T00:08:40;6.95;;;3.50;;
76417;SDS011;65250;47.602;19.002;2023-06-22T00:11:08;8.60;;;3.55;;
76417;SDS011;65250;47.602;19.002;2023-06-22T00:13:34;6.53;;;2.95;;
76417;SDS011;65250;47.602;19.002;2023-06-22T00:16:01;8.30;;;3.30;;
76417;SDS011;65250;47.602;19.002;2023-06-22T00:18:28;7.63;;;3.28;;
76417;SDS011;65250;47.602;19.002;2023-06-22T00:20:57;7.70;;;3.40;;
76417;SDS011;65250;47.602;19.002;2023-06-22T00:23:25;11.55;;;3.80;;
76417;SDS011;65250;47.602;19.002;2023-06-22T00:25:52;7.97;;;3.00;;
76417;SDS011;65250;47.602;19.002;2023-06-22T00:28:19;11.80;;;3.00;;
76417;SDS011;65250;47.602;19.002;2023-06-22T00:30:46;8.40;;;3.47;;
76417;SDS011;65250;47.602;19.002;2023-06-22T00:33:13;9.90;;;3.42;;
76417;SDS011;65250;47.602;19.002;2023-06-22T00:35:39;7.65;;;3.40;;
76417;SDS011;65250;47.602;19.002;2023-06-22T00:38:07;9.68;;;3.00;;
76417;SDS011;65250;47.602;19.002;2023-06-22T00:40:35;6.33;;;3.33;;
76417;SDS011;65250;47.602;19.002;2023-06-22T00:43:02;6.00;;;3.17;;
76417;SDS011;65250;47.602;19.002;2023-06-22T00:45:29;7.45;;;3.13;;
76417;SDS011;65250;47.602;19.002;2023-06-22T00:47:56;9.55;;;3.30;;
76417;SDS011;65250;47.602;19.002;2023-06-22T00:50:25;12.30;;;3.72;;
76417;SDS011;65250;47.602;19.002;2023-06-22T00:52:57;7.13;;;3.27;;
76417;SDS011;65250;47.602;19.002;2023-06-22T00:55:26;8.70;;;3.75;;
76417;SDS011;65250;47.602;19.002;2023-06-22T00:57:53;6.60;;;3.10;;
76417;SDS011;65250;47.602;19.002;2023-06-22T01:00:23;10.23;;;3.15;;
76417;SDS011;65250;47.602;19.002;2023-06-22T01:02:51;7.20;;;3.08;;
76417;SDS011;65250;47.602;19.002;2023-06-22T01:05:22;8.57;;;3.10;;
76417;SDS011;65250;47.602;19.002;2023-06-22T01:07:52;9.18;;;2.85;;
76417;SDS011;65250;47.602;19.002;2023-06-22T01:10:46;5.63;;;2.63;;
76417;SDS011;65250;47.602;19.002;2023-06-22T01:13:24;7.93;;;2.72;;
76417;SDS011;65250;47.602;19.002;2023-06-22T01:15:53;6.40;;;3.40;;
76417;SDS011;65250;47.602;19.002;2023-06-22T01:18:24;10.00;;;2.57;;
76417;SDS011;65250;47.602;19.002;2023-06-22T01:20:55;8.05;;;2.53;;
76417;SDS011;65250;47.602;19.002;2023-06-22T01:23:36;6.53;;;2.78;;
76417;SDS011;65250;47.602;19.002;2023-06-22T01:29:05;7.25;;;2.63;;
76417;SDS011;65250;47.602;19.002;2023-06-22T01:31:33;7.57;;;2.80;;
76417;SDS011;65250;47.602;19.002;2023-06-22T01:34:03;8.75;;;2.80;;
76417;SDS011;65250;47.602;19.002;2023-06-22T01:36:32;6.15;;;2.50;;
76417;SDS011;65250;47.602;19.002;2023-06-22T01:39:00;6.13;;;2.38;;
76417;SDS011;65250;47.602;19.002;2023-06-22T01:41:28;8.07;;;3.45;;
76417;SDS011;65250;47.602;19.002;2023-06-22T01:43:56;10.53;;;4.10;;
76417;SDS011;65250;47.602;19.002;2023-06-22T01:46:23;8.98;;;4.10;;
76417;SDS011;65250;47.602;19.002;2023-06-22T01:48:50;8.13;;;3.92;;
76417;SDS011;65250;47.602;19.002;2023-06-22T01:51:17;10.02;;;3.97;;
76417;SDS011;65250;47.602;19.002;2023-06-22T01:53:44;9.82;;;4.13;;
76417;SDS011;65250;47.602;19.002;2023-06-22T01:56:11;13.20;;;3.83;;
76417;SDS011;65250;47.602;19.002;2023-06-22T02:01:24;9.35;;;3.63;;
76417;SDS011;65250;47.602;19.002;2023-06-22T02:04:02;7.95;;;3.70;;
76417;SDS011;65250;47.602;19.002;2023-06-22T02:06:38;7.75;;;3.63;;
76417;SDS011;65250;47.602;19.002;2023-06-22T02:09:07;7.93;;;3.60;;
76417;SDS011;65250;47.602;19.002;2023-06-22T02:11:36;7.85;;;3.65;;
76417;SDS011;65250;47.602;19.002;2023-06-22T02:14:04;7.15;;;3.63;;
76417;SDS011;65250;47.602;19.002;2023-06-22T02:16:32;7.47;;;3.50;;
76417;SDS011;65250;47.602;19.002;2023-06-22T02:19:00;8.05;;;3.70;;
76417;SDS011;65250;47.602;19.002;2023-06-22T02:21:29;8.57;;;3.07;;
76417;SDS011;65250;47.602;19.002;2023-06-22T02:23:57;8.38;;;3.50;;
76417;SDS011;65250;47.602;19.002;2023-06-22T02:26:25;6.43;;;3.15;;
76417;SDS011;65250;47.602;19.002;2023-06-22T02:28:52;4.53;;;3.00;;
76417;SDS011;65250;47.602;19.002;2023-06-22T02:31:19;8.85;;;3.40;;
76417;SDS011;65250;47.602;19.002;2023-06-22T02:33:46;8.37;;;3.10;;
76417;SDS011;65250;47.602;19.002;2023-06-22T02:36:14;6.15;;;3.15;;
76417;SDS011;65250;47.602;19.002;2023-06-22T02:38:41;5.68;;;3.30;;
76417;SDS011;65250;47.602;19.002;2023-06-22T02:41:15;11.00;;;4.32;;
76417;SDS011;65250;47.602;19.002;2023-06-22T02:43:45;9.27;;;3.13;;
76417;SDS011;65250;47.602;19.002;2023-06-22T02:46:12;7.17;;;3.53;;
76417;SDS011;65250;47.602;19.002;2023-06-22T02:48:40;5.68;;;3.50;;
76417;SDS011;65250;47.602;19.002;2023-06-22T02:51:06;10.93;;;3.80;;
76417;SDS011;65250;47.602;19.002;2023-06-22T02:53:33;8.52;;;3.42;;
76417;SDS011;65250;47.602;19.002;2023-06-22T02:56:04;8.98;;;3.78;;
76417;SDS011;65250;47.602;19.002;2023-06-22T02:58:33;7.63;;;4.00;;
76417;SDS011;65250;47.602;19.002;2023-06-22T03:01:05;7.78;;;3.45;;
76417;SDS011;65250;47.602;19.002;2023-06-22T03:03:32;8.25;;;3.78;;
76417;SDS011;65250;47.602;19.002;2023-06-22T03:05:59;6.60;;;3.60;;
76417;SDS011;65250;47.602;19.002;2023-06-22T03:08:29;7.78;;;3.67;;
76417;SDS011;65250;47.602;19.002;2023-06-22T03:10:56;6.87;;;3.43;;
76417;SDS011;65250;47.602;19.002;2023-06-22T03:13:23;7.97;;;3.25;;
76417;SDS011;65250;47.602;19.002;2023-06-22T03:15:50;7.53;;;3.33;;
76417;SDS011;65250;47.602;19.002;2023-06-22T03:18:17;7.55;;;3.97;;
76417;SDS011;65250;47.602;19.002;2023-06-22T03:20:44;7.63;;;3.88;;
76417;SDS011;65250;47.602;19.002;2023-06-22T03:23:10;7.93;;;3.27;;
76417;SDS011;65250;47.602;19.002;2023-06-22T03:25:37;5.40;;;3.13;;
76417;SDS011;65250;47.602;19.002;2023-06-22T03:28:04;6.32;;;3.10;;
76417;SDS011;65250;47.602;19.002;2023-06-22T03:30:31;8.18;;;3.45;;
76417;SDS011;65250;47.602;19.002;2023-06-22T03:32:58;6.35;;;3.15;;
76417;SDS011;65250;47.602;19.002;2023-06-22T03:35:25;7.83;;;3.97;;
76417;SDS011;65250;47.602;19.002;2023-06-22T03:37:52;7.60;;;3.53;;
76417;SDS011;65250;47.602;19.002;2023-06-22T03:40:18;8.45;;;4.30;;
76417;SDS011;65250;47.602;19.002;2023-06-22T03:42:46;10.38;;;3.90;;
76417;SDS011;65250;47.602;19.002;2023-06-22T03:45:12;7.53;;;3.65;;
76417;SDS011;65250;47.602;19.002;2023-06-22T03:47:40;6.90;;;3.60;;
76417;SDS011;65250;47.602;19.002;2023-06-22T03:50:08;7.97;;;3.60;;
76417;SDS011;65250;47.602;19.002;2023-06-22T03:52:35;11.52;;;3.90;;
76417;SDS011;65250;47.602;19.002;2023-06-22T03:55:02;10.88;;;3.85;;
76417;SDS011;65250;47.602;19.002;2023-06-22T03:57:29;6.97;;;2.80;;
76417;SDS011;65250;47.602;19.002;2023-06-22T03:59:56;7.87;;;3.40;;
76417;SDS011;65250;47.602;19.002;2023-06-22T04:02:23;7.65;;;4.00;;
76417;SDS011;65250;47.602;19.002;2023-06-22T04:04:50;8.10;;;4.45;;
76417;SDS011;65250;47.602;19.002;2023-06-22T04:07:17;7.43;;;3.85;;
76417;SDS011;65250;47.602;19.002;2023-06-22T04:09:44;7.82;;;3.45;;
76417;SDS011;65250;47.602;19.002;2023-06-22T04:12:11;5.83;;;3.50;;
76417;SDS011;65250;47.602;19.002;2023-06-22T04:14:37;6.70;;;3.80;;
76417;SDS011;65250;47.602;19.002;2023-06-22T04:17:04;6.22;;;3.80;;
76417;SDS011;65250;47.602;19.002;2023-06-22T04:19:31;8.70;;;4.15;;
76417;SDS011;65250;47.602;19.002;2023-06-22T04:21:58;9.55;;;3.92;;
76417;SDS011;65250;47.602;19.002;2023-06-22T04:24:25;8.93;;;3.97;;
76417;SDS011;65250;47.602;19.002;2023-06-22T04:26:52;11.60;;;4.03;;
76417;SDS011;65250;47.602;19.002;2023-06-22T04:29:21;7.43;;;4.05;;
76417;SDS011;65250;47.602;19.002;2023-06-22T04:31:56;8.80;;;3.95;;
76417;SDS011;65250;47.602;19.002;2023-06-22T04:34:25;9.43;;;4.53;;
76417;SDS011;65250;47.602;19.002;2023-06-22T04:36:54;11.10;;;4.47;;
76417;SDS011;65250;47.602;19.002;2023-06-22T04:39:21;6.75;;;4.53;;
76417;SDS011;65250;47.602;19.002;2023-06-22T04:41:48;8.88;;;4.25;;
76417;SDS011;65250;47.602;19.002;2023-06-22T04:44:16;7.60;;;4.05;;
76417;SDS011;65250;47.602;19.002;2023-06-22T04:46:53;8.20;;;4.60;;
76417;SDS011;65250;47.602;19.002;2023-06-22T04:49:27;10.90;;;4.30;;
76417;SDS011;65250;47.602;19.002;2023-06-22T04:52:03;12.60;;;5.20;;
76417;SDS011;65250;47.602;19.002;2023-06-22T04:54:34;10.95;;;4.63;;
76417;SDS011;65250;47.602;19.002;2023-06-22T04:57:02;8.25;;;5.28;;
76417;SDS011;65250;47.602;19.002;2023-06-22T04:59:31;9.57;;;4.78;;
76417;SDS011;65250;47.602;19.002;2023-06-22T05:01:58;9.77;;;4.60;;
76417;SDS011;65250;47.602;19.002;2023-06-22T05:04:27;13.57;;;5.20;;
76417;SDS011;65250;47.602;19.002;2023-06-22T05:06:58;9.40;;;5.38;;
76417;SDS011;65250;47.602;19.002;2023-06-22T05:09:26;7.97;;;5.15;;
76417;SDS011;65250;47.602;19.002;2023-06-22T05:11:53;10.48;;;4.78;;
76417;SDS011;65250;47.602;19.002;2023-06-22T05:14:20;11.07;;;5.13;;
76417;SDS011;65250;47.602;19.002;2023-06-22T05:16:46;11.20;;;5.07;;
76417;SDS011;65250;47.602;19.002;2023-06-22T05:19:14;10.07;;;5.25;;
76417;SDS011;65250;47.602;19.002;2023-06-22T05:21:41;8.95;;;5.22;;
76417;SDS011;65250;47.602;19.002;2023-06-22T05:24:08;10.20;;;5.15;;
76417;SDS011;65250;47.602;19.002;2023-06-22T05:26:35;12.87;;;5.73;;
76417;SDS011;65250;47.602;19.002;2023-06-22T05:29:02;10.63;;;5.10;;
76417;SDS011;65250;47.602;19.002;2023-06-22T05:31:30;8.88;;;5.20;;
76417;SDS011;65250;47.602;19.002;2023-06-22T05:33:57;10.35;;;5.38;;
76417;SDS011;65250;47.602;19.002;2023-06-22T05:36:23;9.27;;;5.38;;
76417;SDS011;65250;47.602;19.002;2023-06-22T05:38:53;12.30;;;5.13;;
76417;SDS011;65250;47.602;19.002;2023-06-22T05:41:22;10.77;;;5.25;;
76417;SDS011;65250;47.602;19.002;2023-06-22T05:43:49;12.13;;;6.18;;
76417;SDS011;65250;47.602;19.002;2023-06-22T05:46:15;11.25;;;5.78;;
76417;SDS011;65250;47.602;19.002;2023-06-22T05:48:43;14.52;;;5.15;;
76417;SDS011;65250;47.602;19.002;2023-06-22T05:51:09;7.57;;;5.13;;
76417;SDS011;65250;47.602;19.002;2023-06-22T05:53:37;9.07;;;4.30;;
76417;SDS011;65250;47.602;19.002;2023-06-22T05:56:03;7.25;;;4.63;;
76417;SDS011;65250;47.602;19.002;2023-06-22T05:58:30;11.18;;;4.82;;
76417;SDS011;65250;47.602;19.002;2023-06-22T06:00:57;8.32;;;4.13;;
76417;SDS011;65250;47.602;19.002;2023-06-22T06:03:24;11.97;;;4.57;;
76417;SDS011;65250;47.602;19.002;2023-06-22T06:05:51;9.63;;;4.47;;
76417;SDS011;65250;47.602;19.002;2023-06-22T06:08:18;6.55;;;3.75;;
76417;SDS011;65250;47.602;19.002;2023-06-22T06:10:45;11.00;;;3.90;;
76417;SDS011;65250;47.602;19.002;2023-06-22T06:13:11;6.00;;;3.85;;
76417;SDS011;65250;47.602;19.002;2023-06-22T06:15:38;9.20;;;4.13;;
76417;SDS011;65250;47.602;19.002;2023-06-22T06:18:05;8.20;;;4.40;;
76417;SDS011;65250;47.602;19.002;2023-06-22T06:20:33;7.47;;;3.92;;
76417;SDS011;65250;47.602;19.002;2023-06-22T06:23:00;9.45;;;3.65;;
76417;SDS011;65250;47.602;19.002;2023-06-22T06:25:27;6.15;;;3.60;;
76417;SDS011;65250;47.602;19.002;2023-06-22T06:27:54;11.90;;;4.07;;
76417;SDS011;65250;47.602;19.002;2023-06-22T06:30:21;6.53;;;3.80;;
76417;SDS011;65250;47.602;19.002;2023-06-22T06:32:49;9.00;;;3.97;;
76417;SDS011;65250;47.602;19.002;2023-06-22T06:35:16;8.30;;;4.30;;
76417;SDS011;65250;47.602;19.002;2023-06-22T06:37:44;8.93;;;4.00;;
76417;SDS011;65250;47.602;19.002;2023-06-22T06:40:13;8.00;;;4.10;;
76417;SDS011;65250;47.602;19.002;2023-06-22T06:42:41;8.02;;;4.28;;
76417;SDS011;65250;47.602;19.002;2023-06-22T06:45:12;6.82;;;4.32;;
76417;SDS011;65250;47.602;19.002;2023-06-22T06:47:41;9.05;;;4.00;;
76417;SDS011;65250;47.602;19.002;2023-06-22T06:50:09;8.98;;;3.97;;
76417;SDS011;65250;47.602;19.002;2023-06-22T06:52:36;8.90;;;4.40;;
76417;SDS011;65250;47.602;19.002;2023-06-22T06:55:05;13.82;;;4.32;;
76417;SDS011;65250;47.602;19.002;2023-06-22T06:57:38;9.18;;;3.85;;
76417;SDS011;65250;47.602;19.002;2023-06-22T07:00:06;11.02;;;4.63;;
76417;SDS011;65250;47.602;19.002;2023-06-22T07:02:44;11.88;;;5.13;;
76417;SDS011;65250;47.602;19.002;2023-06-22T07:05:12;6.50;;;3.97;;
76417;SDS011;65250;47.602;19.002;2023-06-22T07:07:39;8.60;;;4.35;;
76417;SDS011;65250;47.602;19.002;2023-06-22T07:10:08;12.88;;;4.43;;
76417;SDS011;65250;47.602;19.002;2023-06-22T07:12:35;9.18;;;3.92;;
76417;SDS011;65250;47.602;19.002;2023-06-22T07:15:05;9.40;;;4.30;;
76417;SDS011;65250;47.602;19.002;2023-06-22T07:17:36;10.50;;;4.20;;
76417;SDS011;65250;47.602;19.002;2023-06-22T07:20:04;9.65;;;4.35;;
76417;SDS011;65250;47.602;19.002;2023-06-22T07:22:39;11.63;;;4.00;;
76417;SDS011;65250;47.602;19.002;2023-06-22T07:25:06;10.02;;;4.43;;
76417;SDS011;65250;47.602;19.002;2023-06-22T07:27:37;10.00;;;4.50;;
76417;SDS011;65250;47.602;19.002;2023-06-22T07:30:06;7.80;;;4.20;;
76417;SDS011;65250;47.602;19.002;2023-06-22T07:32:34;7.05;;;3.88;;
76417;SDS011;65250;47.602;19.002;2023-06-22T07:35:01;9.68;;;4.30;;
76417;SDS011;65250;47.602;19.002;2023-06-22T07:37:28;12.60;;;4.45;;
76417;SDS011;65250;47.602;19.002;2023-06-22T07:39:55;12.05;;;4.03;;
76417;SDS011;65250;47.602;19.002;2023-06-22T07:42:25;5.93;;;4.13;;
76417;SDS011;65250;47.602;19.002;2023-06-22T07:44:53;10.82;;;4.00;;
76417;SDS011;65250;47.602;19.002;2023-06-22T07:47:21;11.00;;;4.57;;
76417;SDS011;65250;47.602;19.002;2023-06-22T07:49:51;7.65;;;4.00;;
76417;SDS011;65250;47.602;19.002;2023-06-22T07:52:21;7.78;;;4.95;;
76417;SDS011;65250;47.602;19.002;2023-06-22T07:54:48;11.83;;;5.07;;
76417;SDS011;65250;47.602;19.002;2023-06-22T07:57:15;11.27;;;4.75;;
76417;SDS011;65250;47.602;19.002;2023-06-22T07:59:41;13.38;;;5.03;;
76417;SDS011;65250;47.602;19.002;2023-06-22T08:02:08;13.32;;;5.28;;
76417;SDS011;65250;47.602;19.002;2023-06-22T08:04:36;16.17;;;5.22;;
76417;SDS011;65250;47.602;19.002;2023-06-22T08:07:03;7.10;;;4.40;;
76417;SDS011;65250;47.602;19.002;2023-06-22T08:09:31;13.30;;;5.03;;
76417;SDS011;65250;47.602;19.002;2023-06-22T08:11:58;9.43;;;4.45;;
76417;SDS011;65250;47.602;19.002;2023-06-22T08:14:26;7.35;;;4.63;;
76417;SDS011;65250;47.602;19.002;2023-06-22T08:16:53;9.02;;;4.25;;
76417;SDS011;65250;47.602;19.002;2023-06-22T08:19:20;11.60;;;4.87;;
76417;SDS011;65250;47.602;19.002;2023-06-22T08:21:47;13.48;;;5.07;;
76417;SDS011;65250;47.602;19.002;2023-06-22T08:24:14;6.65;;;4.00;;
76417;SDS011;65250;47.602;19.002;2023-06-22T08:26:41;9.80;;;4.75;;
76417;SDS011;65250;47.602;19.002;2023-06-22T08:29:08;9.27;;;4.93;;
76417;SDS011;65250;47.602;19.002;2023-06-22T08:31:35;10.40;;;4.40;;
76417;SDS011;65250;47.602;19.002;2023-06-22T08:34:02;13.68;;;4.57;;
76417;SDS011;65250;47.602;19.002;2023-06-22T08:36:29;8.65;;;4.35;;
76417;SDS011;65250;47.602;19.002;2023-06-22T08:38:59;9.63;;;5.13;;
76417;SDS011;65250;47.602;19.002;2023-06-22T08:41:28;14.10;;;4.72;;
76417;SDS011;65250;47.602;19.002;2023-06-22T08:43:55;11.60;;;5.37;;
76417;SDS011;65250;47.602;19.002;2023-06-22T08:46:22;11.75;;;4.82;;
76417;SDS011;65250;47.602;19.002;2023-06-22T08:48:56;8.32;;;4.55;;
76417;SDS011;65250;47.602;19.002;2023-06-22T08:51:26;8.70;;;4.95;;
76417;SDS011;65250;47.602;19.002;2023-06-22T08:53:52;8.95;;;5.60;;
76417;SDS011;65250;47.602;19.002;2023-06-22T08:56:19;9.33;;;4.67;;
76417;SDS011;65250;47.602;19.002;2023-06-22T08:58:46;8.77;;;5.05;;
76417;SDS011;65250;47.602;19.002;2023-06-22T09:01:13;13.18;;;5.70;;
76417;SDS011;65250;47.602;19.002;2023-06-22T09:03:41;8.23;;;4.88;;
76417;SDS011;65250;47.602;19.002;2023-06-22T09:06:09;9.52;;;4.97;;
76417;SDS011;65250;47.602;19.002;2023-06-22T09:08:36;8.93;;;4.70;;
76417;SDS011;65250;47.602;19.002;2023-06-22T09:11:03;13.93;;;5.78;;
76417;SDS011;65250;47.602;19.002;2023-06-22T09:13:30;8.70;;;5.78;;
76417;SDS011;65250;47.602;19.002;2023-06-22T09:15:58;9.63;;;5.70;;
76417;SDS011;65250;47.602;19.002;2023-06-22T09:18:25;9.27;;;5.20;;
76417;SDS011;65250;47.602;19.002;2023-06-22T09:20:51;15.17;;;5.90;;
76417;SDS011;65250;47.602;19.002;2023-06-22T09:23:18;9.32;;;5.65;;
76417;SDS011;65250;47.602;19.002;2023-06-22T09:25:45;13.13;;;5.32;;
76417;SDS011;65250;47.602;19.002;2023-06-22T09:28:14;9.45;;;5.13;;
76417;SDS011;65250;47.602;19.002;2023-06-22T09:30:43;11.27;;;5.43;;
76417;SDS011;65250;47.602;19.002;2023-06-22T09:33:11;8.23;;;5.43;;
76417;SDS011;65250;47.602;19.002;2023-06-22T09:35:38;11.25;;;6.10;;
76417;SDS011;65250;47.602;19.002;2023-06-22T09:38:05;10.10;;;5.70;;
76417;SDS011;65250;47.602;19.002;2023-06-22T09:40:31;8.65;;;5.72;;
76417;SDS011;65250;47.602;19.002;2023-06-22T09:43:01;8.48;;;5.35;;
76417;SDS011;65250;47.602;19.002;2023-06-22T09:45:28;10.53;;;5.80;;
76417;SDS011;65250;47.602;19.002;2023-06-22T09:47:55;14.07;;;6.32;;
76417;SDS011;65250;47.602;19.002;2023-06-22T09:50:22;9.70;;;6.35;;
76417;SDS011;65250;47.602;19.002;2023-06-22T09:52:49;11.20;;;6.47;;
76417;SDS011;65250;47.602;19.002;2023-06-22T09:55:21;9.35;;;5.88;;
76417;SDS011;65250;47.602;19.002;2023-06-22T09:57:48;12.17;;;6.60;;
76417;SDS011;65250;47.602;19.002;2023-06-22T10:00:16;8.60;;;6.50;;
76417;SDS011;65250;47.602;19.002;2023-06-22T10:02:43;11.18;;;6.40;;
76417;SDS011;65250;47.602;19.002;2023-06-22T10:05:11;10.32;;;6.50;;
76417;SDS011;65250;47.602;19.002;2023-06-22T10:07:38;8.40;;;7.05;;
76417;SDS011;65250;47.602;19.002;2023-06-22T10:10:09;10.07;;;6.97;;
76417;SDS011;65250;47.602;19.002;2023-06-22T10:12:41;10.20;;;7.18;;
76417;SDS011;65250;47.602;19.002;2023-06-22T10:15:14;11.85;;;7.13;;
76417;SDS011;65250;47.602;19.002;2023-06-22T10:17:42;10.00;;;7.18;;
76417;SDS011;65250;47.602;19.002;2023-06-22T10:20:09;10.43;;;7.75;;
76417;SDS011;65250;47.602;19.002;2023-06-22T10:22:40;12.23;;;7.43;;
76417;SDS011;65250;47.602;19.002;2023-06-22T10:25:08;11.90;;;7.93;;
76417;SDS011;65250;47.602;19.002;2023-06-22T10:27:36;9.32;;;6.70;;
76417;SDS011;65250;47.602;19.002;2023-06-22T10:30:07;10.35;;;7.72;;
76417;SDS011;65250;47.602;19.002;2023-06-22T10:32:39;13.10;;;8.93;;
76417;SDS011;65250;47.602;19.002;2023-06-22T10:35:06;10.23;;;6.90;;
76417;SDS011;65250;47.602;19.002;2023-06-22T10:37:33;11.25;;;7.43;;
76417;SDS011;65250;47.602;19.002;2023-06-22T10:40:00;9.95;;;8.35;;
76417;SDS011;65250;47.602;19.002;2023-06-22T10:42:27;11.90;;;7.80;;
76417;SDS011;65250;47.602;19.002;2023-06-22T10:44:53;14.10;;;8.35;;
76417;SDS011;65250;47.602;19.002;2023-06-22T10:47:20;11.37;;;8.03;;
76417;SDS011;65250;47.602;19.002;2023-06-22T10:49:47;12.93;;;7.70;;
76417;SDS011;65250;47.602;19.002;2023-06-22T10:52:14;10.02;;;8.10;;
76417;SDS011;65250;47.602;19.002;2023-06-22T10:54:41;13.32;;;7.95;;
76417;SDS011;65250;47.602;19.002;2023-06-22T10:57:07;9.40;;;8.30;;
76417;SDS011;65250;47.602;19.002;2023-06-22T10:59:34;12.63;;;8.47;;
76417;SDS011;65250;47.602;19.002;2023-06-22T11:02:01;12.90;;;9.35;;
76417;SDS011;65250;47.602;19.002;2023-06-22T11:04:28;17.27;;;9.05;;
76417;SDS011;65250;47.602;19.002;2023-06-22T11:06:55;11.68;;;8.75;;
76417;SDS011;65250;47.602;19.002;2023-06-22T11:09:22;10.73;;;8.50;;
76417;SDS011;65250;47.602;19.002;2023-06-22T11:11:55;12.93;;;8.33;;
76417;SDS011;65250;47.602;19.002;2023-06-22T11:14:22;9.30;;;7.97;;
76417;SDS011;65250;47.602;19.002;2023-06-22T11:16:49;9.60;;;8.55;;
76417;SDS011;65250;47.602;19.002;2023-06-22T11:19:16;12.15;;;9.52;;
76417;SDS011;65250;47.602;19.002;2023-06-22T11:21:43;12.90;;;9.90;;
76417;SDS011;65250;47.602;19.002;2023-06-22T11:24:10;16.23;;;8.63;;
76417;SDS011;65250;47.602;19.002;2023-06-22T11:26:37;11.55;;;9.48;;
76417;SDS011;65250;47.602;19.002;2023-06-22T11:29:03;12.32;;;9.43;;
76417;SDS011;65250;47.602;19.002;2023-06-22T11:31:32;24.50;;;10.60;;
76417;SDS011;65250;47.602;19.002;2023-06-22T11:33:59;12.68;;;10.65;;
76417;SDS011;65250;47.602;19.002;2023-06-22T11:36:26;11.90;;;9.97;;
76417;SDS011;65250;47.602;19.002;2023-06-22T11:38:53;12.88;;;10.15;;
76417;SDS011;65250;47.602;19.002;2023-06-22T11:41:20;11.60;;;10.32;;
76417;SDS011;65250;47.602;19.002;2023-06-22T11:43:47;12.05;;;9.75;;
76417;SDS011;65250;47.602;19.002;2023-06-22T11:46:14;10.75;;;9.75;;
76417;SDS011;65250;47.602;19.002;2023-06-22T11:48:40;12.67;;;10.90;;
76417;SDS011;65250;47.602;19.002;2023-06-22T11:51:07;12.25;;;11.13;;
76417;SDS011;65250;47.602;19.002;2023-06-22T11:53:34;17.52;;;10.98;;
76417;SDS011;65250;47.602;19.002;2023-06-22T11:56:01;12.15;;;10.93;;
76417;SDS011;65250;47.602;19.002;2023-06-22T11:58:28;11.75;;;10.75;;
76417;SDS011;65250;47.602;19.002;2023-06-22T12:00:55;12.97;;;11.67;;
76417;SDS011;65250;47.602;19.002;2023-06-22T12:03:22;13.27;;;12.10;;
76417;SDS011;65250;47.602;19.002;2023-06-22T12:05:50;13.82;;;12.40;;
76417;SDS011;65250;47.602;19.002;2023-06-22T12:08:18;16.27;;;11.70;;
76417;SDS011;65250;47.602;19.002;2023-06-22T12:10:45;13.38;;;12.10;;
76417;SDS011;65250;47.602;19.002;2023-06-22T12:13:12;18.77;;;12.10;;
76417;SDS011;65250;47.602;19.002;2023-06-22T12:15:39;13.25;;;11.70;;
76417;SDS011;65250;47.602;19.002;2023-06-22T12:18:06;12.73;;;11.63;;
76417;SDS011;65250;47.602;19.002;2023-06-22T12:20:33;15.73;;;13.02;;
76417;SDS011;65250;47.602;19.002;2023-06-22T12:23:00;14.77;;;11.95;;
76417;SDS011;65250;47.602;19.002;2023-06-22T12:25:26;13.73;;;12.32;;
76417;SDS011;65250;47.602;19.002;2023-06-22T12:27:53;13.45;;;12.10;;
76417;SDS011;65250;47.602;19.002;2023-06-22T12:30:20;12.82;;;11.63;;
76417;SDS011;65250;47.602;19.002;2023-06-22T12:32:47;13.48;;;12.27;;
76417;SDS011;65250;47.602;19.002;2023-06-22T12:35:14;13.90;;;12.68;;
76417;SDS011;65250;47.602;19.002;2023-06-22T12:37:41;14.70;;;13.02;;
76417;SDS011;65250;47.602;19.002;2023-06-22T12:40:11;14.45;;;12.50;;
76417;SDS011;65250;47.602;19.002;2023-06-22T12:42:39;14.55;;;13.05;;
76417;SDS011;65250;47.602;19.002;2023-06-22T12:45:06;15.50;;;13.98;;
76417;SDS011;65250;47.602;19.002;2023-06-22T12:47:33;15.05;;;13.77;;
76417;SDS011;65250;47.602;19.002;2023-06-22T12:50:00;14.77;;;13.57;;
76417;SDS011;65250;47.602;19.002;2023-06-22T12:52:27;14.55;;;13.10;;
76417;SDS011;65250;47.602;19.002;2023-06-22T12:54:56;15.30;;;14.10;;
76417;SDS011;65250;47.602;19.002;2023-06-22T12:57:23;14.35;;;13.15;;
76417;SDS011;65250;47.602;19.002;2023-06-22T12:59:50;13.70;;;12.60;;
76417;SDS011;65250;47.602;19.002;2023-06-22T13:02:16;14.02;;;12.82;;
76417;SDS011;65250;47.602;19.002;2023-06-22T13:04:43;14.75;;;13.18;;
76417;SDS011;65250;47.602;19.002;2023-06-22T13:07:10;14.00;;;12.70;;
76417;SDS011;65250;47.602;19.002;2023-06-22T13:09:40;14.18;;;12.95;;
76417;SDS011;65250;47.602;19.002;2023-06-22T13:12:07;15.73;;;14.43;;
76417;SDS011;65250;47.602;19.002;2023-06-22T13:14:34;14.93;;;13.73;;
76417;SDS011;65250;47.602;19.002;2023-06-22T13:17:01;16.05;;;14.50;;
76417;SDS011;65250;47.602;19.002;2023-06-22T13:19:28;17.35;;;14.55;;
76417;SDS011;65250;47.602;19.002;2023-06-22T13:21:58;15.70;;;14.07;;
76417;SDS011;65250;47.602;19.002;2023-06-22T13:24:26;15.73;;;14.23;;
76417;SDS011;65250;47.602;19.002;2023-06-22T13:26:53;15.00;;;13.48;;
76417;SDS011;65250;47.602;19.002;2023-06-22T13:29:20;15.02;;;13.60;;
76417;SDS011;65250;47.602;19.002;2023-06-22T13:31:47;15.70;;;14.27;;
76417;SDS011;65250;47.602;19.002;2023-06-22T13:34:13;14.25;;;12.98;;
76417;SDS011;65250;47.602;19.002;2023-06-22T13:36:40;14.85;;;13.65;;
76417;SDS011;65250;47.602;19.002;2023-06-22T13:39:07;15.85;;;14.38;;
76417;SDS011;65250;47.602;19.002;2023-06-22T13:41:34;15.10;;;13.60;;
76417;SDS011;65250;47.602;19.002;2023-06-22T13:44:01;14.73;;;13.52;;
76417;SDS011;65250;47.602;19.002;2023-06-22T13:46:27;17.00;;;13.82;;
76417;SDS011;65250;47.602;19.002;2023-06-22T13:48:54;15.35;;;14.00;;
76417;SDS011;65250;47.602;19.002;2023-06-22T13:51:22;15.57;;;14.15;;
76417;SDS011;65250;47.602;19.002;2023-06-22T13:53:49;15.38;;;14.27;;
76417;SDS011;65250;47.602;19.002;2023-06-22T13:56:16;17.15;;;14.23;;
76417;SDS011;65250;47.602;19.002;2023-06-22T13:58:43;15.50;;;14.20;;
76417;SDS011;65250;47.602;19.002;2023-06-22T14:01:10;17.10;;;15.38;;
76417;SDS011;65250;47.602;19.002;2023-06-22T14:03:43;16.90;;;15.40;;
76417;SDS011;65250;47.602;19.002;2023-06-22T14:06:12;17.13;;;15.73;;
76417;SDS011;65250;47.602;19.002;2023-06-22T14:08:39;19.20;;;17.70;;
76417;SDS011;65250;47.602;19.002;2023-06-22T14:11:07;19.30;;;17.75;;
76417;SDS011;65250;47.602;19.002;2023-06-22T14:13:34;20.77;;;19.30;;
76417;SDS011;65250;47.602;19.002;2023-06-22T14:16:02;21.10;;;19.48;;
76417;SDS011;65250;47.602;19.002;2023-06-22T14:18:31;21.23;;;19.67;;
76417;SDS011;65250;47.602;19.002;2023-06-22T14:20:57;22.08;;;20.50;;
76417;SDS011;65250;47.602;19.002;2023-06-22T14:23:24;23.20;;;21.27;;
76417;SDS011;65250;47.602;19.002;2023-06-22T14:25:51;22.63;;;20.63;;
76417;SDS011;65250;47.602;19.002;2023-06-22T14:28:18;21.58;;;19.77;;
76417;SDS011;65250;47.602;19.002;2023-06-22T14:30:45;21.35;;;19.48;;
76417;SDS011;65250;47.602;19.002;2023-06-22T14:33:12;23.23;;;21.15;;
76417;SDS011;65250;47.602;19.002;2023-06-22T14:35:39;24.17;;;22.27;;